Aeroporto :
LOGIN :

Iscrizione | Disclaimer

   EN    FR    IT 

 










Sommario :    VFR   VFR Marginale   IFR   IFR Intensivo   IFR Molto Intensivo
Visibilità : 
Base nubi : 
>= 8 km
>= 3000ft
5 / 8 km
1000 / 3000 ft
1500m / 5 km
500 / 1000 ft
800 / 1500m
200 / 500 ft
< 800m
< 200 ft
Simboli :   Temporali  Nebbia  Neve Forte  Precipitazioni Forti  Vento > 20 kt
SIGMETs :   Varie  Temporali  Ghiacco  Turbolenza  Onda orograficha  Ceneri Vulcaniche







- Altitudine del aeroporto : 14 ft
- Codice IATA : BRE


EDDW - Bremen Neuenland

ULTIMO METAR :
  • 130750Z 07009KT 9999 FEW010 BKN018 02/01 Q1025 NOSIG

METARs OBSOLETI :
  • 130720Z 06010KT 9999 FEW010 BKN018 02/01 Q1025 NOSIG
  • 130650Z 07010KT 9999 SCT010 BKN020 02/01 Q1025 NOSIG
  • 130620Z 08010KT 9999 BKN011 BKN017 03/01 Q1025 TEMPO BKN008
  • 130550Z 08013KT 9999 BKN011 03/01 Q1025 TEMPO BKN008
  • 130520Z 09011KT 9999 BKN012 02/01 Q1025 NOSIG

TAF TAF EDDW
Valido dal 13 a 06 ore il 14 a 06 ore UTC


130500Z 1306/1406 07007KT 9999 BKN020
TEMPO 1306/1311 BKN012
PROB30
TEMPO 1306/1310 BKN008
TEMPO 1312/1319 BKN012
BECMG 1319/1321 BKN012
TEMPO 1320/1406 BKN006
Nessun NOTAM noto per questo aeroporto.



MetMap, La meteo Aeronautica in un colpo d'occhio ! - Copyright ORBIFLY Dicembre 2007 - Disclaimer

ORBIFLY MET'MAP TEAM :

Programmazione e sviluppo : Alexandra Zaïnal
Concezione e sviluppo : Baudouin d'Aumeries
Co-Programmazione e sviluppo : Marc-Olivier Méhu
Supporto tecnico e logistico : Manuel Goepfert
Aiuto per la traduzione : Arnaldo La Scala

Contatto : metmap@orbifly.com




FONTI E CREDITI :

   NOAA